createdAt,value
2019-02-20T00:00:46.781Z,3.00
2019-02-20T00:03:15.302Z,3.40
2019-02-20T00:05:43.777Z,3.25
2019-02-20T00:08:12.180Z,3.10
2019-02-20T00:10:40.788Z,3.25
2019-02-20T00:13:09.426Z,3.30
2019-02-20T00:15:38.058Z,3.55
2019-02-20T00:18:06.592Z,3.72
2019-02-20T00:20:35.201Z,3.95
2019-02-20T00:23:03.759Z,3.75
2019-02-20T00:25:32.323Z,3.90
2019-02-20T00:28:00.887Z,4.15
2019-02-20T00:30:29.348Z,4.47
2019-02-20T00:32:57.869Z,3.85
2019-02-20T00:35:26.399Z,4.25
2019-02-20T00:37:54.925Z,4.22
2019-02-20T00:40:23.553Z,4.05
2019-02-20T00:42:53.267Z,4.10
2019-02-20T00:45:29.215Z,3.67
2019-02-20T00:47:59.338Z,3.55
2019-02-20T00:50:29.427Z,3.42
2019-02-20T00:53:02.552Z,3.20
2019-02-20T00:55:31.087Z,3.10
2019-02-20T00:57:59.654Z,3.72
2019-02-20T01:00:28.196Z,3.70
2019-02-20T01:02:57.704Z,3.15
2019-02-20T01:05:26.249Z,3.40
2019-02-20T01:07:54.783Z,4.37
2019-02-20T01:10:23.443Z,5.22
2019-02-20T01:12:51.999Z,5.67
2019-02-20T01:15:20.567Z,8.15
2019-02-20T01:17:48.982Z,11.18
2019-02-20T01:20:17.556Z,16.55
2019-02-20T01:22:46.075Z,18.48
2019-02-20T01:25:14.640Z,21.20
2019-02-20T01:27:43.263Z,21.68
2019-02-20T01:30:12.730Z,23.05
2019-02-20T01:32:41.358Z,23.50
2019-02-20T01:35:09.964Z,23.87
2019-02-20T01:37:38.406Z,22.85
2019-02-20T01:40:07.809Z,22.15
2019-02-20T01:42:36.212Z,21.70
2019-02-20T01:45:05.110Z,19.98
2019-02-20T01:47:33.821Z,19.12
2019-02-20T01:50:02.303Z,19.80
2019-02-20T01:52:30.749Z,20.70
2019-02-20T01:54:59.320Z,21.73
2019-02-20T01:57:27.899Z,21.10
2019-02-20T01:59:56.512Z,20.05
2019-02-20T02:02:25.119Z,19.85
2019-02-20T02:04:53.691Z,19.57
2019-02-20T02:07:22.387Z,17.90
2019-02-20T02:09:50.903Z,17.23
2019-02-20T02:12:19.565Z,15.93
2019-02-20T02:14:48.160Z,15.65
2019-02-20T02:17:16.756Z,13.55
2019-02-20T02:19:45.436Z,13.95
2019-02-20T02:22:13.995Z,13.48
2019-02-20T02:24:42.537Z,12.30
2019-02-20T02:27:11.020Z,11.35
2019-02-20T02:29:39.714Z,11.30
2019-02-20T02:32:08.364Z,9.90
2019-02-20T02:34:36.858Z,10.18
2019-02-20T02:37:05.375Z,9.63
2019-02-20T02:39:33.919Z,9.10
2019-02-20T02:42:02.399Z,8.38
2019-02-20T02:44:30.945Z,8.40
2019-02-20T02:46:59.446Z,8.00
2019-02-20T02:49:28.897Z,7.12
2019-02-20T02:51:57.470Z,6.58
2019-02-20T02:54:25.997Z,6.15
2019-02-20T02:56:54.523Z,5.62
2019-02-20T02:59:23.063Z,5.58
2019-02-20T03:01:51.655Z,5.80
2019-02-20T03:04:20.097Z,5.42
2019-02-20T03:06:48.762Z,5.30
2019-02-20T03:09:18.595Z,5.20
2019-02-20T03:11:47.020Z,5.20
2019-02-20T03:14:15.545Z,4.97
2019-02-20T03:16:44.291Z,4.30
2019-02-20T03:19:12.857Z,4.35
2019-02-20T03:21:41.505Z,3.85
2019-02-20T03:24:10.029Z,3.85
2019-02-20T03:26:38.605Z,3.50
2019-02-20T03:29:07.391Z,3.65
2019-02-20T03:31:35.778Z,3.20
2019-02-20T03:34:04.389Z,3.05
2019-02-20T03:36:32.900Z,2.80
2019-02-20T03:39:01.419Z,3.00
2019-02-20T03:41:29.889Z,2.75
2019-02-20T03:43:58.438Z,2.47
2019-02-20T03:46:27.039Z,2.67
2019-02-20T03:48:55.678Z,2.47
2019-02-20T03:51:24.131Z,2.25
2019-02-20T03:53:52.680Z,2.80
2019-02-20T03:56:21.072Z,2.60
2019-02-20T03:58:50.000Z,3.10
2019-02-20T04:01:18.387Z,2.80
2019-02-20T04:03:46.867Z,3.50
2019-02-20T04:06:15.491Z,3.20
2019-02-20T04:08:44.026Z,2.70
2019-02-20T04:11:12.588Z,2.80
2019-02-20T04:13:41.114Z,2.85
2019-02-20T04:16:09.580Z,3.17
2019-02-20T04:18:38.293Z,2.92
2019-02-20T04:21:06.835Z,3.87
2019-02-20T04:23:35.259Z,4.37
2019-02-20T04:26:03.959Z,4.40
2019-02-20T04:28:32.877Z,5.00
2019-02-20T04:31:01.487Z,4.90
2019-02-20T04:33:30.103Z,4.78
2019-02-20T04:35:58.743Z,5.40
2019-02-20T04:38:28.283Z,5.22
2019-02-20T04:40:56.736Z,5.20
2019-02-20T04:43:25.304Z,4.75
2019-02-20T04:45:53.870Z,4.87
2019-02-20T04:48:22.377Z,4.62
2019-02-20T04:50:51.017Z,4.90
2019-02-20T04:53:19.505Z,5.28
2019-02-20T04:55:48.052Z,4.72
2019-02-20T04:58:19.017Z,4.83
2019-02-20T05:00:47.618Z,4.25
2019-02-20T05:03:16.155Z,3.83
2019-02-20T05:05:44.745Z,4.30
2019-02-20T05:08:13.186Z,4.12
2019-02-20T05:10:41.872Z,3.70
2019-02-20T05:13:10.323Z,3.90
2019-02-20T05:15:38.872Z,4.00
2019-02-20T05:18:07.389Z,4.62
2019-02-20T05:20:35.833Z,5.80
2019-02-20T05:23:04.302Z,5.87
2019-02-20T05:25:32.901Z,5.70
2019-02-20T05:28:01.450Z,6.20
2019-02-20T05:30:29.935Z,7.67
2019-02-20T05:32:58.455Z,8.88
2019-02-20T05:35:26.925Z,8.35
2019-02-20T05:37:55.407Z,7.53
2019-02-20T05:40:23.831Z,8.65
2019-02-20T05:42:52.241Z,8.65
2019-02-20T05:45:20.931Z,8.18
2019-02-20T05:47:49.333Z,7.87
2019-02-20T05:50:17.755Z,6.28
2019-02-20T05:52:46.235Z,6.53
2019-02-20T05:55:14.709Z,8.10
2019-02-20T05:57:43.976Z,9.08
2019-02-20T06:00:13.366Z,9.75
2019-02-20T06:02:41.860Z,10.32
2019-02-20T06:05:10.323Z,10.75
2019-02-20T06:07:38.872Z,11.03
2019-02-20T06:10:09.111Z,12.65
2019-02-20T06:12:37.501Z,13.00
2019-02-20T06:15:08.391Z,15.32
2019-02-20T06:17:36.904Z,15.18
2019-02-20T06:20:09.646Z,15.93
2019-02-20T06:22:38.212Z,15.28
2019-02-20T06:25:06.900Z,15.13
2019-02-20T06:27:35.316Z,17.55
2019-02-20T06:30:05.821Z,16.50
2019-02-20T06:32:34.244Z,16.15
2019-02-20T06:35:02.694Z,15.83
2019-02-20T06:37:31.168Z,14.98
2019-02-20T06:39:59.639Z,15.95
2019-02-20T06:42:28.206Z,15.75
2019-02-20T06:44:56.636Z,15.43
2019-02-20T06:47:25.119Z,14.43
2019-02-20T06:49:53.643Z,14.50
2019-02-20T06:52:22.136Z,13.50
2019-02-20T06:54:53.894Z,13.80
2019-02-20T06:57:20.839Z,13.13
2019-02-20T06:59:49.496Z,12.78
2019-02-20T07:02:18.088Z,14.63
2019-02-20T07:05:23.209Z,13.75
2019-02-20T07:07:54.884Z,14.85
2019-02-20T07:10:32.521Z,14.33
2019-02-20T07:13:04.303Z,14.50
2019-02-20T07:15:47.872Z,15.23
2019-02-20T07:18:28.593Z,14.55
2019-02-20T07:21:18.644Z,14.13
2019-02-20T07:24:02.278Z,15.20
2019-02-20T07:26:53.402Z,17.27
2019-02-20T07:29:47.856Z,18.67
2019-02-20T07:32:17.784Z,17.57
2019-02-20T07:34:46.330Z,16.97
2019-02-20T07:37:14.808Z,18.95
2019-02-20T07:39:43.208Z,18.17
2019-02-20T07:42:11.642Z,18.73
2019-02-20T07:44:40.133Z,17.52
2019-02-20T07:47:08.692Z,19.73
2019-02-20T07:49:37.190Z,19.55
2019-02-20T07:52:05.667Z,19.55
2019-02-20T07:54:34.238Z,18.52
2019-02-20T07:57:02.629Z,17.55
2019-02-20T07:59:31.100Z,17.27
2019-02-20T08:01:59.677Z,16.85
2019-02-20T08:04:28.155Z,18.98
2019-02-20T08:06:56.589Z,19.30
2019-02-20T08:09:25.150Z,17.92
2019-02-20T08:11:53.646Z,20.85
2019-02-20T08:14:22.111Z,17.92
2019-02-20T08:16:52.711Z,19.57
2019-02-20T08:19:21.888Z,18.15
2019-02-20T08:21:50.571Z,17.55
2019-02-20T08:24:19.051Z,17.98
2019-02-20T08:26:47.494Z,16.00
2019-02-20T08:29:16.048Z,14.20
2019-02-20T08:31:44.451Z,16.35
2019-02-20T08:34:12.944Z,15.55
2019-02-20T08:36:41.503Z,16.02
2019-02-20T08:39:09.910Z,15.78
2019-02-20T08:41:38.363Z,14.10
2019-02-20T08:44:06.932Z,17.10
2019-02-20T08:46:35.354Z,19.48
2019-02-20T08:49:03.818Z,18.30
2019-02-20T08:51:32.318Z,17.65
2019-02-20T08:54:00.850Z,19.05
2019-02-20T08:56:29.314Z,18.15
2019-02-20T08:58:57.871Z,16.27
2019-02-20T09:01:26.341Z,17.35
2019-02-20T09:03:54.883Z,16.55
2019-02-20T09:06:23.512Z,14.85
2019-02-20T09:08:52.004Z,16.07
2019-02-20T09:11:20.430Z,15.03
2019-02-20T09:13:48.983Z,14.38
2019-02-20T09:16:17.467Z,15.20
2019-02-20T09:18:45.863Z,15.35
2019-02-20T09:21:14.449Z,14.00
2019-02-20T09:23:42.899Z,13.93
2019-02-20T09:26:11.323Z,14.50
2019-02-20T09:28:39.820Z,13.35
2019-02-20T09:31:08.217Z,13.93
2019-02-20T09:33:36.719Z,14.78
2019-02-20T09:36:05.192Z,14.35
2019-02-20T09:38:33.728Z,14.33
2019-02-20T09:41:02.150Z,16.00
2019-02-20T09:43:30.656Z,14.07
2019-02-20T09:45:59.161Z,16.17
2019-02-20T09:48:27.633Z,17.42
2019-02-20T09:50:56.063Z,17.12
2019-02-20T09:53:24.676Z,17.40
2019-02-20T09:55:53.224Z,15.08
2019-02-20T09:58:24.732Z,15.93
2019-02-20T10:00:53.224Z,16.15
2019-02-20T10:03:21.789Z,14.85
2019-02-20T10:05:50.198Z,16.65
2019-02-20T10:08:18.762Z,17.55
2019-02-20T10:10:47.274Z,17.50
2019-02-20T10:13:15.744Z,17.77
2019-02-20T10:15:44.360Z,18.87
2019-02-20T10:18:12.827Z,20.15
2019-02-20T10:20:41.293Z,21.42
2019-02-20T10:23:09.838Z,22.07
2019-02-20T10:25:38.354Z,24.50
2019-02-20T10:28:06.840Z,24.27
2019-02-20T10:30:35.371Z,26.42
2019-02-20T10:33:03.908Z,25.37
2019-02-20T10:35:32.395Z,26.50
2019-02-20T10:38:00.833Z,23.60
2019-02-20T10:40:29.504Z,24.72
2019-02-20T10:42:57.963Z,25.88
2019-02-20T10:45:26.481Z,27.42
2019-02-20T10:47:55.016Z,25.52
2019-02-20T10:50:23.512Z,24.25
2019-02-20T10:52:51.997Z,23.40
2019-02-20T10:55:20.402Z,23.85
2019-02-20T10:57:48.969Z,24.23
2019-02-20T11:00:23.870Z,22.60
2019-02-20T11:02:51.016Z,22.10
2019-02-20T11:05:19.480Z,22.27
2019-02-20T11:07:48.020Z,24.52
2019-02-20T11:10:16.487Z,24.15
2019-02-20T11:12:44.972Z,21.57
2019-02-20T11:15:13.475Z,22.27
2019-02-20T11:17:41.977Z,22.75
2019-02-20T11:20:11.529Z,21.05
2019-02-20T11:22:39.999Z,20.80
2019-02-20T11:25:10.787Z,21.75
2019-02-20T11:27:39.621Z,22.75
2019-02-20T11:30:11.273Z,22.82
2019-02-20T11:32:39.703Z,21.68
2019-02-20T11:35:08.837Z,21.48
2019-02-20T11:37:37.223Z,22.00
2019-02-20T11:40:25.147Z,23.30
2019-02-20T11:42:53.634Z,25.52
2019-02-20T11:45:22.137Z,23.57
2019-02-20T11:47:50.684Z,23.42
2019-02-20T11:50:19.092Z,24.10
2019-02-20T11:52:47.583Z,21.82
2019-02-20T11:55:16.124Z,20.85
2019-02-20T11:57:44.619Z,19.85
2019-02-20T12:00:19.483Z,20.82
2019-02-20T12:02:47.983Z,23.83
2019-02-20T12:05:16.443Z,23.10
2019-02-20T12:07:44.920Z,24.85
2019-02-20T12:10:15.441Z,24.85
2019-02-20T12:12:43.911Z,24.10
2019-02-20T12:15:12.532Z,23.50
2019-02-20T12:17:41.053Z,22.52
2019-02-20T12:20:09.514Z,21.33
2019-02-20T12:22:38.093Z,21.37
2019-02-20T12:25:08.302Z,22.32
2019-02-20T12:27:36.708Z,22.50
2019-02-20T12:30:07.819Z,20.08
2019-02-20T12:32:36.287Z,19.92
2019-02-20T12:35:06.336Z,20.55
2019-02-20T12:37:34.926Z,21.12
2019-02-20T12:40:05.120Z,22.10
2019-02-20T12:42:33.663Z,20.90
2019-02-20T12:45:02.138Z,26.68
2019-02-20T12:47:30.600Z,25.52
2019-02-20T12:49:59.042Z,24.02
2019-02-20T12:52:28.531Z,22.42
2019-02-20T12:54:58.247Z,22.02
2019-02-20T12:57:26.744Z,21.00
2019-02-20T12:59:55.315Z,23.30
2019-02-20T13:02:23.847Z,20.85
2019-02-20T13:04:52.444Z,20.80
2019-02-20T13:07:20.959Z,18.85
2019-02-20T13:09:50.181Z,17.52
2019-02-20T13:12:18.753Z,16.00
2019-02-20T13:14:47.241Z,13.85
2019-02-20T13:17:15.659Z,13.25
2019-02-20T13:19:44.079Z,12.10
2019-02-20T13:22:12.548Z,11.50
2019-02-20T13:24:40.922Z,13.28
2019-02-20T13:27:10.262Z,16.75
2019-02-20T13:29:38.972Z,14.63
2019-02-20T13:32:07.475Z,12.75
2019-02-20T13:34:35.929Z,15.08
2019-02-20T13:37:04.418Z,13.38
2019-02-20T13:39:32.874Z,13.62
2019-02-20T13:42:01.319Z,12.25
2019-02-20T13:44:29.885Z,11.53
2019-02-20T13:46:58.530Z,10.63
2019-02-20T13:49:26.942Z,10.72
2019-02-20T13:51:55.418Z,9.65
2019-02-20T13:54:23.824Z,9.30
2019-02-20T13:56:52.280Z,8.98
2019-02-20T13:59:20.776Z,8.48
2019-02-20T14:01:49.312Z,8.88
2019-02-20T14:04:17.848Z,7.80
2019-02-20T14:06:46.316Z,7.67
2019-02-20T14:09:15.255Z,7.20
2019-02-20T14:11:43.951Z,6.92
2019-02-20T14:14:12.484Z,7.03
2019-02-20T14:16:41.062Z,6.80
2019-02-20T14:19:09.868Z,7.25
2019-02-20T14:21:38.488Z,8.40
2019-02-20T14:24:06.987Z,8.43
2019-02-20T14:26:54.905Z,9.50
2019-02-20T14:29:23.407Z,8.60
2019-02-20T14:31:52.241Z,8.73
2019-02-20T14:34:20.637Z,9.03
2019-02-20T14:36:50.164Z,10.13
2019-02-20T14:39:18.564Z,11.40
2019-02-20T14:41:47.013Z,9.90
2019-02-20T14:44:15.423Z,9.48
2019-02-20T14:46:43.860Z,8.25
2019-02-20T14:49:12.659Z,8.20
2019-02-20T14:51:41.063Z,8.15
2019-02-20T14:54:09.463Z,8.48
2019-02-20T14:56:37.950Z,9.38
2019-02-20T14:59:06.344Z,8.88
2019-02-20T15:01:34.788Z,10.32
2019-02-20T15:04:03.302Z,10.80
2019-02-20T15:06:31.720Z,10.48
2019-02-20T15:09:00.156Z,10.10
2019-02-20T15:11:28.708Z,10.45
2019-02-20T15:13:57.107Z,10.58
2019-02-20T15:16:25.519Z,9.40
2019-02-20T15:18:54.046Z,9.98
2019-02-20T15:21:22.789Z,9.20
2019-02-20T15:23:51.254Z,8.60
2019-02-20T15:26:19.752Z,9.68
2019-02-20T15:28:48.281Z,10.45
2019-02-20T15:31:16.703Z,9.10
2019-02-20T15:33:45.132Z,10.98
2019-02-20T15:36:13.765Z,10.72
2019-02-20T15:38:42.495Z,12.03
2019-02-20T15:41:10.888Z,10.10
2019-02-20T15:43:42.341Z,8.73
2019-02-20T15:46:10.766Z,8.93
2019-02-20T15:48:39.217Z,8.93
2019-02-20T15:51:07.710Z,8.48
2019-02-20T15:53:36.157Z,8.25
2019-02-20T15:56:04.548Z,8.35
2019-02-20T15:58:33.168Z,8.30
2019-02-20T16:01:01.581Z,8.80
2019-02-20T16:03:29.986Z,8.23
2019-02-20T16:05:58.644Z,8.58
2019-02-20T16:08:27.035Z,8.33
2019-02-20T16:10:55.607Z,9.00
2019-02-20T16:13:24.077Z,8.20
2019-02-20T16:15:52.503Z,8.80
2019-02-20T16:18:21.069Z,9.08
2019-02-20T16:20:49.421Z,8.88
2019-02-20T16:23:17.863Z,8.40
2019-02-20T16:25:46.304Z,7.92
2019-02-20T16:28:14.807Z,7.58
2019-02-20T16:30:43.239Z,8.70
2019-02-20T16:33:11.700Z,8.60
2019-02-20T16:35:40.108Z,8.28
2019-02-20T16:38:08.555Z,9.00
2019-02-20T16:40:37.018Z,8.90
2019-02-20T16:43:05.400Z,8.00
2019-02-20T16:45:34.168Z,7.00
2019-02-20T16:48:02.600Z,6.37
2019-02-20T16:50:31.001Z,6.47
2019-02-20T16:52:59.355Z,6.62
2019-02-20T16:55:27.791Z,6.17
2019-02-20T16:57:57.139Z,5.95
2019-02-20T17:00:25.851Z,6.25
2019-02-20T17:02:54.655Z,5.97
2019-02-20T17:05:22.997Z,6.28
2019-02-20T17:07:51.399Z,5.45
2019-02-20T17:10:19.890Z,5.45
2019-02-20T17:12:48.253Z,5.15
2019-02-20T17:15:17.478Z,5.33
2019-02-20T17:17:45.908Z,5.20
2019-02-20T17:20:18.878Z,5.90
2019-02-20T17:22:47.334Z,6.20
2019-02-20T17:25:17.296Z,6.90
2019-02-20T17:27:45.717Z,7.30
2019-02-20T17:30:18.441Z,7.70
2019-02-20T17:32:47.120Z,7.25
2019-02-20T17:35:17.035Z,7.50
2019-02-20T17:37:45.855Z,8.43
2019-02-20T17:40:33.778Z,8.30
2019-02-20T17:43:02.176Z,7.47
2019-02-20T17:45:31.966Z,7.40
2019-02-20T17:48:00.282Z,7.83
2019-02-20T17:50:28.661Z,6.25
2019-02-20T17:52:57.085Z,6.92
2019-02-20T17:55:25.453Z,7.10
2019-02-20T17:57:53.829Z,7.67
2019-02-20T18:00:27.261Z,7.90
2019-02-20T18:02:55.651Z,8.03
2019-02-20T18:05:24.169Z,8.33
2019-02-20T18:07:52.648Z,8.50
2019-02-20T18:10:21.020Z,8.93
2019-02-20T18:13:08.926Z,9.80
2019-02-20T18:15:37.286Z,9.00
2019-02-20T18:18:25.058Z,9.50
2019-02-20T18:20:53.443Z,9.90
2019-02-20T18:23:21.915Z,11.43
2019-02-20T18:25:50.272Z,11.55
2019-02-20T18:28:24.549Z,11.20
2019-02-20T18:30:48.798Z,11.57
2019-02-20T18:33:17.163Z,11.80
2019-02-20T18:35:45.549Z,12.00
2019-02-20T18:38:15.217Z,11.00
2019-02-20T18:40:43.605Z,12.03
2019-02-20T18:43:12.006Z,11.18
2019-02-20T18:45:40.420Z,11.30
2019-02-20T18:48:08.854Z,11.00
2019-02-20T18:50:37.224Z,10.75
2019-02-20T18:53:05.707Z,11.40
2019-02-20T18:55:34.097Z,13.05
2019-02-20T18:58:02.612Z,12.80
2019-02-20T19:00:31.043Z,12.78
2019-02-20T19:03:00.035Z,11.57
2019-02-20T19:05:28.613Z,13.15
2019-02-20T19:07:57.055Z,11.30
2019-02-20T19:10:40.002Z,10.90
2019-02-20T19:13:20.614Z,12.18
2019-02-20T19:15:57.858Z,11.30
2019-02-20T19:19:02.894Z,10.78
2019-02-20T19:21:46.660Z,11.10
2019-02-20T19:24:36.202Z,10.68
2019-02-20T19:27:07.999Z,11.10
2019-02-20T19:29:45.214Z,10.08
2019-02-20T19:32:30.811Z,10.43
2019-02-20T19:35:14.444Z,11.22
2019-02-20T19:38:12.851Z,11.63
2019-02-20T19:41:05.418Z,11.48
2019-02-20T19:43:49.093Z,10.85
2019-02-20T19:46:29.609Z,11.80
2019-02-20T19:49:01.422Z,11.10
2019-02-20T19:51:38.917Z,11.57
2019-02-20T19:54:19.722Z,11.68
2019-02-20T19:57:09.210Z,13.20
2019-02-20T19:59:58.979Z,17.98
2019-02-20T20:02:42.632Z,22.37
2019-02-20T20:05:26.094Z,24.30
2019-02-20T20:11:08.392Z,25.30
2019-02-20T20:14:11.897Z,24.30
2019-02-20T20:16:58.434Z,24.75
2019-02-20T20:19:46.564Z,25.10
2019-02-20T20:22:45.870Z,23.05
2019-02-20T20:25:17.512Z,23.35
2019-02-20T20:27:54.865Z,21.55
2019-02-20T20:30:38.638Z,18.80
2019-02-20T20:33:44.854Z,16.55
2019-02-20T20:36:25.044Z,16.37
2019-02-20T20:39:14.645Z,15.58
2019-02-20T20:42:05.760Z,15.15
2019-02-20T20:44:55.616Z,13.55
2019-02-20T20:47:51.539Z,13.00
2019-02-20T20:50:48.512Z,13.13
2019-02-20T20:53:22.825Z,12.55
2019-02-20T20:56:12.757Z,12.30
2019-02-20T20:58:50.151Z,10.85
2019-02-20T21:01:39.954Z,11.33
2019-02-20T21:04:32.531Z,10.38
2019-02-20T21:07:22.038Z,10.05
2019-02-20T21:09:59.488Z,8.73
2019-02-20T21:12:34.261Z,8.85
2019-02-20T21:15:21.710Z,8.58
2019-02-20T21:18:13.993Z,8.50
2019-02-20T21:21:00.538Z,8.88
2019-02-20T21:23:38.316Z,8.63
2019-02-20T21:26:34.471Z,8.50
2019-02-20T21:31:55.141Z,9.13
2019-02-20T21:34:54.028Z,8.63
2019-02-20T21:37:43.577Z,9.45
2019-02-20T21:40:26.837Z,9.70
2019-02-20T21:43:18.147Z,9.23
2019-02-20T21:45:49.773Z,8.45
2019-02-20T21:48:24.447Z,8.30
2019-02-20T21:50:56.083Z,8.28
2019-02-20T21:53:40.004Z,8.23
2019-02-20T21:56:29.557Z,7.95
2019-02-20T21:59:10.304Z,7.97
2019-02-20T22:01:50.500Z,7.78
2019-02-20T22:04:24.815Z,8.03
2019-02-20T22:07:29.376Z,8.05
2019-02-20T22:10:17.412Z,7.72
2019-02-20T22:13:14.610Z,8.45
2019-02-20T22:16:05.788Z,8.35
2019-02-20T22:18:53.866Z,8.90
2019-02-20T22:21:51.180Z,8.58
2019-02-20T22:24:25.528Z,8.80
2019-02-20T22:26:57.148Z,9.38
2019-02-20T22:29:37.618Z,8.90
2019-02-20T22:32:30.646Z,8.65
2019-02-20T22:35:05.103Z,8.83
2019-02-20T22:37:47.487Z,8.95
2019-02-20T22:40:31.136Z,8.83
2019-02-20T22:43:31.180Z,8.93
2019-02-20T22:46:14.226Z,8.28
2019-02-20T22:49:06.532Z,9.58
2019-02-20T22:51:47.272Z,9.20
2019-02-20T22:54:52.078Z,8.95
2019-02-20T22:57:32.292Z,9.85
2019-02-20T23:00:21.765Z,13.70
2019-02-20T23:03:20.003Z,13.60
2019-02-20T23:06:00.906Z,14.73
2019-02-20T23:08:32.596Z,13.53
2019-02-20T23:11:09.965Z,14.63
2019-02-20T23:13:44.470Z,13.22
2019-02-20T23:16:12.951Z,16.37
2019-02-20T23:18:41.377Z,14.87
2019-02-20T23:21:09.668Z,17.07
2019-02-20T23:23:38.040Z,16.00
2019-02-20T23:26:06.437Z,15.75
2019-02-20T23:28:34.825Z,15.65
2019-02-20T23:31:03.891Z,15.50
2019-02-20T23:33:32.424Z,17.60
2019-02-20T23:36:00.903Z,17.57
2019-02-20T23:38:29.332Z,16.87
2019-02-20T23:40:57.768Z,16.32
2019-02-20T23:43:26.085Z,16.80
2019-02-20T23:45:54.464Z,15.68
2019-02-20T23:48:23.072Z,14.53
2019-02-20T23:50:51.440Z,13.25
2019-02-20T23:53:19.839Z,12.55
2019-02-20T23:55:48.294Z,11.28
2019-02-20T23:58:16.707Z,12.25
